Time;durP1;ratioP1;P1;durP2;ratioP2;P2;SDS_P1;SDS_P2;PMS_P1;PMS_P2;Temp;Humidity;BMP_temperature;BMP_pressure;BME280_temperature;BME280_humidity;BME280_pressure;Samples;Min_cycle;Max_cycle;Signal;HPM_P1;HPM_P2
2023/12/07 00:06:56;;;;;;;1.50;1.23;;;;;;;17.16;48.97;101520.38;20782919;28;20081;-66
2023/12/07 00:16:57;;;;;;;1.77;1.17;;;;;;;17.16;49.03;101521.22;20782093;28;20058;-67
2023/12/07 00:26:59;;;;;;;1.70;1.10;;;;;;;17.20;48.77;101514.63;20760883;28;20049;-68
2023/12/07 00:37:01;;;;;;;1.67;1.27;;;;;;;17.29;48.56;101518.47;20783775;28;20275;-66
2023/12/07 00:47:03;;;;;;;1.55;1.10;;;;;;;17.39;48.30;101518.63;20784973;28;20053;-66
2023/12/07 00:57:08;;;;;;;1.20;1.10;;;;;;;17.47;47.99;101534.19;20765544;28;20080;-66
2023/12/07 01:07:09;;;;;;;1.30;1.20;;;;;;;17.50;47.79;101536.66;20770493;28;20093;-66
2023/12/07 01:17:11;;;;;;;1.33;1.15;;;;;;;17.56;47.44;101551.47;20748251;28;20161;-66
2023/12/07 01:27:13;;;;;;;1.20;1.05;;;;;;;17.61;47.46;101551.97;20793880;28;20077;-66
2023/12/07 01:37:15;;;;;;;1.10;1.00;;;;;;;17.61;47.31;101547.44;20775510;28;20053;-66
2023/12/07 01:47:17;;;;;;;1.20;1.00;;;;;;;17.64;47.21;101551.72;20761567;28;20049;-67
2023/12/07 01:57:19;;;;;;;1.77;1.27;;;;;;;17.65;47.14;101548.91;20790972;28;20456;-66
2023/12/07 02:07:23;;;;;;;1.40;1.30;;;;;;;17.73;46.70;101555.53;20789261;28;20045;-66
2023/12/07 02:18:02;;;;;;;0.90;0.90;;;;;;;17.77;46.61;101559.72;20786090;28;20391;-66
2023/12/07 02:28:04;;;;;;;1.20;1.10;;;;;;;17.80;46.73;101567.53;20792129;28;20069;-66
2023/12/07 02:38:07;;;;;;;1.45;1.25;;;;;;;17.83;46.40;101561.91;20790071;28;20049;-66
2023/12/07 02:48:09;;;;;;;2.00;1.00;;;;;;;17.87;46.34;101565.25;20788258;28;20130;-66
2023/12/07 02:58:11;;;;;;;1.17;1.05;;;;;;;17.89;46.04;101560.59;20769263;28;20128;-66
2023/12/07 03:08:12;;;;;;;1.00;0.95;;;;;;;17.91;45.96;101570.28;20782144;28;20049;-66
2023/12/07 03:18:14;;;;;;;1.00;0.80;;;;;;;17.91;45.66;101558.63;20763891;28;20099;-66
2023/12/07 03:28:16;;;;;;;1.20;1.10;;;;;;;17.89;45.51;101561.44;20765570;28;20057;-66
2023/12/07 03:38:18;;;;;;;1.40;1.23;;;;;;;17.79;45.53;101565.84;20784556;28;20060;-66
2023/12/07 03:48:19;;;;;;;1.20;1.10;;;;;;;17.64;45.76;101549.91;20752681;28;20045;-67
2023/12/07 03:58:21;;;;;;;1.50;1.23;;;;;;;17.48;45.83;101573.59;20779137;28;20055;-66
2023/12/07 04:08:23;;;;;;;1.40;1.20;;;;;;;17.37;45.84;101585.19;20769654;28;20049;-67
2023/12/07 04:18:25;;;;;;;1.42;1.33;;;;;;;17.33;45.83;101586.38;20787512;28;20053;-66
2023/12/07 04:28:27;;;;;;;1.55;1.30;;;;;;;17.30;45.80;101592.84;20756299;28;20041;-67
2023/12/07 04:38:28;;;;;;;1.38;1.27;;;;;;;17.32;45.72;101596.28;20782219;28;20053;-67
2023/12/07 04:48:30;;;;;;;1.40;1.30;;;;;;;17.30;45.61;101597.38;20780559;28;20129;-66
2023/12/07 04:58:32;;;;;;;1.33;1.23;;;;;;;17.28;45.57;101591.25;20800224;28;20511;-66
2023/12/07 05:08:34;;;;;;;1.30;1.20;;;;;;;17.32;45.37;101595.44;20787865;28;20056;-66
2023/12/07 05:18:36;;;;;;;1.92;1.23;;;;;;;17.49;44.87;101599.53;20790560;28;20053;-66
2023/12/07 05:28:38;;;;;;;1.95;1.33;;;;;;;17.59;44.28;101591.59;20790544;28;20119;-66
2023/12/07 05:38:40;;;;;;;1.58;1.30;;;;;;;17.66;44.47;101582.06;20793948;28;20044;-66
2023/12/07 05:48:41;;;;;;;1.83;1.63;;;;;;;17.57;44.89;101588.16;20787624;28;20048;-66
2023/12/07 05:58:43;;;;;;;3.10;1.40;;;;;;;17.48;45.88;101585.22;20798284;28;20046;-67
2023/12/07 06:08:45;;;;;;;1.75;1.63;;;;;;;17.45;46.90;101592.66;20802082;28;20520;-66
2023/12/07 06:18:47;;;;;;;3.45;1.40;;;;;;;17.43;47.60;101579.31;20774735;28;20049;-66
2023/12/07 06:28:49;;;;;;;1.85;1.52;;;;;;;17.54;46.90;101582.03;20747062;28;20045;-66
2023/12/07 06:38:50;;;;;;;2.53;1.52;;;;;;;17.59;46.57;101580.84;20773982;28;20123;-67
2023/12/07 06:48:52;;;;;;;2.38;1.67;;;;;;;17.60;46.16;101590.63;20776212;28;20080;-66
2023/12/07 06:58:54;;;;;;;2.00;1.80;;;;;;;17.57;45.63;101607.91;20756761;28;20703;-66
2023/12/07 07:08:56;;;;;;;2.10;1.50;;;;;;;17.59;45.58;101602.38;20773144;28;20450;-66
2023/12/07 07:19:01;;;;;;;1.70;1.60;;;;;;;17.60;45.31;101601.41;20771496;28;20076;-66
2023/12/07 07:29:03;;;;;;;2.08;1.60;;;;;;;17.60;45.16;101604.97;20791549;28;20053;-66
2023/12/07 07:39:07;;;;;;;2.35;1.98;;;;;;;17.57;44.98;101612.41;20795000;28;20106;-66
2023/12/07 07:49:09;;;;;;;2.15;1.92;;;;;;;17.56;44.79;101619.63;20787540;28;20049;-66
2023/12/07 07:59:11;;;;;;;2.80;2.22;;;;;;;17.52;44.58;101621.69;20791298;28;20059;-66
2023/12/07 08:09:13;;;;;;;2.17;1.90;;;;;;;17.47;44.73;101625.72;20790195;28;20493;-66
2023/12/07 08:19:15;;;;;;;2.05;1.85;;;;;;;17.48;44.48;101628.28;20830065;28;20057;-66
2023/12/07 08:29:16;;;;;;;2.45;2.25;;;;;;;17.52;44.44;101624.38;20836267;28;20045;-66
2023/12/07 08:39:18;;;;;;;1.85;1.73;;;;;;;17.60;44.38;101621.13;20853817;28;20057;-66
2023/12/07 08:49:20;;;;;;;2.28;2.05;;;;;;;17.59;44.43;101614.00;20859565;28;20197;-66
2023/12/07 08:59:22;;;;;;;1.95;1.75;;;;;;;17.68;44.45;101623.25;20759704;28;20473;-66
2023/12/07 09:09:25;;;;;;;2.65;2.40;;;;;;;17.69;44.30;101638.41;20765369;28;20394;-66
2023/12/07 09:19:28;;;;;;;2.63;2.00;;;;;;;17.67;44.16;101633.13;20782090;28;20100;-67
2023/12/07 09:29:30;;;;;;;2.10;1.90;;;;;;;17.62;44.14;101621.84;20784326;28;20468;-66
2023/12/07 09:39:31;;;;;;;2.20;1.80;;;;;;;17.59;44.61;101650.84;20784394;28;20041;-64
2023/12/07 09:49:33;;;;;;;1.73;1.55;;;;;;;17.61;45.09;101640.81;20778412;28;20053;-64
2023/12/07 09:59:36;;;;;;;2.00;1.30;;;;;;;17.81;44.92;101618.63;20754457;28;20168;-65
2023/12/07 10:09:39;;;;;;;1.73;1.30;;;;;;;17.98;44.86;101635.28;20773587;28;20088;-64
2023/12/07 10:19:41;;;;;;;1.38;1.08;;;;;;;18.06;44.67;101627.50;20746120;28;20128;-64
2023/12/07 10:29:45;;;;;;;1.75;1.30;;;;;;;18.14;44.87;101620.69;20760388;28;20135;-65
2023/12/07 10:39:46;;;;;;;1.65;1.45;;;;;;;18.17;44.76;101597.03;20782158;28;20057;-64
2023/12/07 10:49:52;;;;;;;1.40;1.30;;;;;;;18.19;44.73;101589.69;20764998;28;20045;-63
2023/12/07 10:59:55;;;;;;;1.73;1.48;;;;;;;18.15;45.09;101576.59;20761305;28;20064;-64
2023/12/07 11:10:05;;;;;;;2.72;1.45;;;;;;;18.08;45.44;101554.66;20732337;28;20483;-63
2023/12/07 11:20:08;;;;;;;2.13;1.20;;;;;;;18.22;45.67;101577.81;20774560;28;20050;-62
2023/12/07 11:30:10;;;;;;;7.95;1.50;;;;;;;18.24;45.63;101565.06;20775248;28;20065;-62
2023/12/07 11:40:12;;;;;;;2.50;1.20;;;;;;;18.27;45.68;101543.25;20727013;28;20053;-63
2023/12/07 11:50:14;;;;;;;1.55;1.33;;;;;;;18.30;45.55;101531.34;20751920;28;20064;-64
2023/12/07 12:00:17;;;;;;;1.30;1.20;;;;;;;18.27;44.96;101524.41;20745011;28;20048;-64
2023/12/07 12:10:20;;;;;;;1.65;1.55;;;;;;;18.26;44.93;101546.94;20763726;28;20053;-63
2023/12/07 12:20:22;;;;;;;1.58;1.40;;;;;;;18.25;44.95;101529.06;20752514;28;20049;-63
2023/12/07 12:30:24;;;;;;;1.48;1.38;;;;;;;18.22;44.92;101503.19;20760069;28;20049;-64
2023/12/07 12:40:28;;;;;;;1.60;1.50;;;;;;;18.19;45.05;101508.81;20752677;28;20538;-65
2023/12/07 12:50:36;;;;;;;2.57;1.90;;;;;;;18.18;45.15;101472.09;20769036;28;20087;-64
2023/12/07 13:00:39;;;;;;;2.60;2.40;;;;;;;18.17;45.40;101456.06;20747376;28;20386;-64
2023/12/07 13:10:41;;;;;;;2.78;2.22;;;;;;;18.17;45.45;101445.28;20748300;28;20409;-63
2023/12/07 13:20:43;;;;;;;3.13;2.60;;;;;;;18.14;45.71;101440.97;20766487;28;20428;-62
2023/12/07 13:30:56;;;;;;;3.50;2.60;;;;;;;18.11;45.76;101444.75;20783642;28;20049;-63
2023/12/07 13:40:57;;;;;;;3.90;3.08;;;;;;;18.11;45.95;101436.69;20786273;28;20407;-63
2023/12/07 13:50:59;;;;;;;4.43;3.55;;;;;;;18.09;46.15;101424.34;20768971;28;20057;-63
2023/12/07 14:01:01;;;;;;;5.65;3.80;;;;;;;18.10;46.41;101416.09;20775104;28;20057;-64
2023/12/07 14:11:03;;;;;;;5.93;4.18;;;;;;;18.12;46.52;101402.53;20786749;28;20191;-64
2023/12/07 14:21:05;;;;;;;5.57;4.45;;;;;;;18.00;46.63;101380.09;20783919;28;20057;-64
2023/12/07 14:31:14;;;;;;;8.32;5.45;;;;;;;18.17;46.85;101391.38;20782675;28;20080;-64
2023/12/07 14:41:16;;;;;;;8.10;5.90;;;;;;;18.00;46.85;101385.47;20779377;28;20421;-64
2023/12/07 14:51:20;;;;;;;7.93;5.97;;;;;;;17.77;46.79;101355.03;20797275;28;20060;-64
2023/12/07 15:01:22;;;;;;;8.10;6.10;;;;;;;17.69;46.73;101363.75;20796296;28;20096;-64
2023/12/07 15:11:23;;;;;;;7.50;5.80;;;;;;;17.60;46.76;101359.09;20778746;28;20049;-64
2023/12/07 15:21:25;;;;;;;7.95;5.80;;;;;;;17.57;46.80;101356.63;20777731;28;20056;-64
2023/12/07 15:31:27;;;;;;;8.25;5.97;;;;;;;17.53;46.57;101329.13;20794648;28;20473;-64
2023/12/07 15:41:29;;;;;;;7.80;5.57;;;;;;;17.51;46.46;101312.25;20775500;28;20046;-64
2023/12/07 15:51:31;;;;;;;7.60;6.10;;;;;;;17.48;46.28;101325.94;20792925;28;20417;-64
2023/12/07 16:01:33;;;;;;;8.70;5.85;;;;;;;17.44;46.10;101311.88;20791529;28;20556;-64
2023/12/07 16:11:34;;;;;;;7.40;5.63;;;;;;;17.39;46.22;101295.25;20774024;28;20049;-64
2023/12/07 16:21:37;;;;;;;8.30;6.15;;;;;;;17.39;46.02;101289.84;20790679;28;20053;-64
2023/12/07 16:31:39;;;;;;;8.18;6.00;;;;;;;17.27;45.96;101253.19;20790033;28;20116;-64
2023/12/07 16:41:40;;;;;;;7.88;5.40;;;;;;;17.34;45.88;101252.53;20789476;28;20420;-65
2023/12/07 16:51:55;;;;;;;6.80;5.35;;;;;;;17.30;45.90;101244.84;20788381;28;20497;-64
2023/12/07 17:01:57;;;;;;;8.00;6.43;;;;;;;17.33;45.75;101248.13;20787810;28;20053;-64
2023/12/07 17:11:59;;;;;;;7.40;5.88;;;;;;;17.31;45.64;101225.88;20770335;28;20048;-64
2023/12/07 17:22:01;;;;;;;7.63;5.63;;;;;;;17.22;45.60;101202.41;20787944;28;20060;-64
2023/12/07 17:32:03;;;;;;;8.00;6.05;;;;;;;17.29;45.51;101197.41;20787501;28;20469;-63
2023/12/07 17:42:04;;;;;;;7.80;6.18;;;;;;;17.27;45.64;101205.59;20769389;28;20045;-64
2023/12/07 17:52:06;;;;;;;6.85;5.55;;;;;;;17.23;45.58;101205.00;20786738;28;20080;-64
2023/12/07 18:02:08;;;;;;;7.43;5.40;;;;;;;17.24;45.47;101168.16;20773408;28;20068;-64
2023/12/07 18:12:10;;;;;;;8.10;6.45;;;;;;;17.23;45.43;101135.03;20800567;28;20069;-64
2023/12/07 18:22:11;;;;;;;8.30;6.90;;;;;;;17.24;45.19;101131.38;20799820;28;20539;-64
2023/12/07 18:32:15;;;;;;;7.75;6.28;;;;;;;17.27;45.33;101122.16;20781743;28;20480;-65
2023/12/07 18:42:17;;;;;;;6.63;5.18;;;;;;;17.29;45.04;101116.69;20780973;28;20053;-64
2023/12/07 18:52:20;;;;;;;7.15;5.78;;;;;;;17.25;45.10;101122.31;20779954;28;20045;-64
2023/12/07 19:02:22;;;;;;;8.05;6.38;;;;;;;17.15;45.17;101104.34;20796536;28;20409;-64
2023/12/07 19:12:24;;;;;;;9.55;6.63;;;;;;;17.05;45.17;101104.25;20795302;28;20053;-64
2023/12/07 19:22:26;;;;;;;7.07;5.55;;;;;;;17.04;45.34;101097.16;20794832;28;20049;-64
2023/12/07 19:32:28;;;;;;;7.82;6.03;;;;;;;17.07;45.26;101080.78;20794966;28;20057;-64
2023/12/07 19:42:29;;;;;;;7.55;6.18;;;;;;;17.05;45.19;101072.84;20746119;28;20485;-64
2023/12/07 19:52:31;;;;;;;6.93;5.47;;;;;;;17.01;45.13;101059.75;20709522;28;20050;-64
2023/12/07 20:02:34;;;;;;;6.93;5.63;;;;;;;16.98;45.19;101044.72;20691979;28;20062;-65
2023/12/07 20:12:36;;;;;;;7.18;6.03;;;;;;;17.00;45.13;101039.22;20708169;28;20502;-64
2023/12/07 20:22:38;;;;;;;7.65;5.32;;;;;;;16.97;45.15;101005.31;20708229;28;20412;-65
2023/12/07 20:32:40;;;;;;;6.07;5.47;;;;;;;16.98;45.12;100995.47;20709355;28;20057;-64
2023/12/07 20:42:41;;;;;;;5.93;4.70;;;;;;;17.04;44.93;100973.44;20706693;28;20048;-64
2023/12/07 20:52:43;;;;;;;4.93;4.20;;;;;;;17.13;44.61;100961.91;20785356;28;20057;-64
2023/12/07 21:02:45;;;;;;;5.45;4.50;;;;;;;17.14;44.47;100939.38;20770075;28;20041;-64
2023/12/07 21:12:49;;;;;;;4.63;4.10;;;;;;;17.18;44.50;100934.63;20788031;28;20486;-64
2023/12/07 21:22:51;;;;;;;5.60;4.30;;;;;;;17.20;44.34;100913.81;20788225;28;20045;-64
2023/12/07 21:32:53;;;;;;;5.18;4.13;;;;;;;17.17;44.36;100888.00;20769708;28;20176;-64
2023/12/07 21:42:57;;;;;;;6.18;3.92;;;;;;;17.20;44.12;100873.47;20788318;28;20052;-64
2023/12/07 21:52:59;;;;;;;3.97;3.58;;;;;;;17.20;44.25;100851.94;20784412;28;20053;-64
2023/12/07 22:03:03;;;;;;;3.50;2.95;;;;;;;17.18;44.16;100841.28;20801223;28;20046;-64
2023/12/07 22:13:04;;;;;;;4.47;3.50;;;;;;;17.22;44.00;100842.72;20800554;28;20057;-64
2023/12/07 22:23:06;;;;;;;3.80;3.40;;;;;;;17.23;43.88;100828.31;20799895;28;20041;-64
2023/12/07 22:33:09;;;;;;;3.85;3.35;;;;;;;17.23;43.85;100801.41;20783395;28;20147;-64
2023/12/07 22:43:11;;;;;;;2.85;2.55;;;;;;;17.22;43.62;100785.41;20797794;28;20063;-64
2023/12/07 22:53:13;;;;;;;4.15;2.78;;;;;;;17.19;43.74;100754.22;20795419;28;20064;-64
2023/12/07 23:03:15;;;;;;;3.08;2.65;;;;;;;17.17;43.75;100748.13;20794494;28;20053;-64
2023/12/07 23:13:17;;;;;;;3.03;2.72;;;;;;;17.21;43.60;100735.28;20778760;28;20056;-64
2023/12/07 23:23:18;;;;;;;2.63;2.42;;;;;;;17.22;43.44;100715.44;20741292;28;20485;-64
2023/12/07 23:33:20;;;;;;;3.28;2.90;;;;;;;17.22;43.28;100691.25;20762164;28;20065;-64
2023/12/07 23:43:22;;;;;;;2.47;2.28;;;;;;;17.22;43.24;100665.16;20790456;28;20046;-64
2023/12/07 23:53:24;;;;;;;3.00;2.70;;;;;;;17.24;43.17;100647.09;20775007;28;20050;-64
